sensor_id;sensor_type;location;lat;lon;timestamp;pressure;altitude;pressure_sealevel;temperature
69420;BMP280;71621;52.030;113.516;2024-02-26T00:01:32;94539.88;;;-20.87
69420;BMP280;71621;52.030;113.516;2024-02-26T00:04:37;94532.25;;;-20.87
69420;BMP280;71621;52.030;113.516;2024-02-26T00:07:40;94547.81;;;-20.85
69420;BMP280;71621;52.030;113.516;2024-02-26T00:10:44;94538.38;;;-20.84
69420;BMP280;71621;52.030;113.516;2024-02-26T00:13:47;94532.19;;;-20.83
69420;BMP280;71621;52.030;113.516;2024-02-26T00:16:51;94542.94;;;-20.76
69420;BMP280;71621;52.030;113.516;2024-02-26T00:19:54;94544.13;;;-20.64
69420;BMP280;71621;52.030;113.516;2024-02-26T00:22:58;94537.66;;;-20.68
69420;BMP280;71621;52.030;113.516;2024-02-26T00:26:01;94544.66;;;-20.72
69420;BMP280;71621;52.030;113.516;2024-02-26T00:29:06;94537.38;;;-20.70
69420;BMP280;71621;52.030;113.516;2024-02-26T00:32:10;94534.28;;;-20.62
69420;BMP280;71621;52.030;113.516;2024-02-26T00:35:13;94533.38;;;-20.88
69420;BMP280;71621;52.030;113.516;2024-02-26T00:38:18;94540.44;;;-20.79
69420;BMP280;71621;52.030;113.516;2024-02-26T00:41:22;94535.41;;;-20.63
69420;BMP280;71621;52.030;113.516;2024-02-26T00:44:25;94543.78;;;-20.46
69420;BMP280;71621;52.030;113.516;2024-02-26T00:47:29;94536.03;;;-20.42
69420;BMP280;71621;52.030;113.516;2024-02-26T00:50:33;94539.13;;;-20.51
69420;BMP280;71621;52.030;113.516;2024-02-26T00:53:37;94548.16;;;-20.46
69420;BMP280;71621;52.030;113.516;2024-02-26T00:56:40;94533.91;;;-20.44
69420;BMP280;71621;52.030;113.516;2024-02-26T00:59:44;94542.31;;;-20.31
69420;BMP280;71621;52.030;113.516;2024-02-26T01:02:47;94542.00;;;-20.16
69420;BMP280;71621;52.030;113.516;2024-02-26T01:05:51;94550.28;;;-20.12
69420;BMP280;71621;52.030;113.516;2024-02-26T01:08:59;94550.59;;;-20.10
69420;BMP280;71621;52.030;113.516;2024-02-26T01:12:03;94542.25;;;-19.94
69420;BMP280;71621;52.030;113.516;2024-02-26T01:15:07;94547.69;;;-19.79
69420;BMP280;71621;52.030;113.516;2024-02-26T01:18:12;94542.75;;;-19.70
69420;BMP280;71621;52.030;113.516;2024-02-26T01:21:15;94542.97;;;-19.65
69420;BMP280;71621;52.030;113.516;2024-02-26T01:24:19;94538.38;;;-19.70
69420;BMP280;71621;52.030;113.516;2024-02-26T01:27:22;94544.22;;;-19.56
69420;BMP280;71621;52.030;113.516;2024-02-26T01:30:29;94533.06;;;-19.46
69420;BMP280;71621;52.030;113.516;2024-02-26T01:33:33;94535.16;;;-19.28
69420;BMP280;71621;52.030;113.516;2024-02-26T01:36:37;94532.84;;;-19.10
69420;BMP280;71621;52.030;113.516;2024-02-26T01:39:40;94531.03;;;-18.97
69420;BMP280;71621;52.030;113.516;2024-02-26T01:42:45;94535.63;;;-18.79
69420;BMP280;71621;52.030;113.516;2024-02-26T01:45:48;94536.44;;;-18.69
69420;BMP280;71621;52.030;113.516;2024-02-26T01:48:52;94531.78;;;-18.58
69420;BMP280;71621;52.030;113.516;2024-02-26T01:51:57;94535.13;;;-18.48
69420;BMP280;71621;52.030;113.516;2024-02-26T01:55:01;94530.13;;;-18.52
69420;BMP280;71621;52.030;113.516;2024-02-26T01:58:05;94536.84;;;-18.45
69420;BMP280;71621;52.030;113.516;2024-02-26T02:01:09;94529.00;;;-18.25
69420;BMP280;71621;52.030;113.516;2024-02-26T02:04:14;94541.50;;;-18.05
69420;BMP280;71621;52.030;113.516;2024-02-26T02:07:18;94539.00;;;-17.96
69420;BMP280;71621;52.030;113.516;2024-02-26T02:10:23;94534.69;;;-17.86
69420;BMP280;71621;52.030;113.516;2024-02-26T02:13:28;94537.84;;;-17.82
69420;BMP280;71621;52.030;113.516;2024-02-26T02:16:31;94532.50;;;-17.75
69420;BMP280;71621;52.030;113.516;2024-02-26T02:19:35;94525.31;;;-17.67
69420;BMP280;71621;52.030;113.516;2024-02-26T02:22:39;94522.31;;;-17.53
69420;BMP280;71621;52.030;113.516;2024-02-26T02:25:42;94524.91;;;-17.44
69420;BMP280;71621;52.030;113.516;2024-02-26T02:28:46;94523.16;;;-17.25
69420;BMP280;71621;52.030;113.516;2024-02-26T02:31:51;94518.34;;;-17.01
69420;BMP280;71621;52.030;113.516;2024-02-26T02:34:56;94519.94;;;-16.85
69420;BMP280;71621;52.030;113.516;2024-02-26T02:37:59;94517.28;;;-16.72
69420;BMP280;71621;52.030;113.516;2024-02-26T02:41:03;94520.47;;;-16.59
69420;BMP280;71621;52.030;113.516;2024-02-26T02:44:07;94515.66;;;-16.48
69420;BMP280;71621;52.030;113.516;2024-02-26T02:47:10;94500.03;;;-16.41
69420;BMP280;71621;52.030;113.516;2024-02-26T02:50:13;94504.44;;;-16.41
69420;BMP280;71621;52.030;113.516;2024-02-26T02:53:17;94502.00;;;-16.54
69420;BMP280;71621;52.030;113.516;2024-02-26T02:56:21;94497.03;;;-16.58
69420;BMP280;71621;52.030;113.516;2024-02-26T02:59:25;94497.06;;;-16.48
69420;BMP280;71621;52.030;113.516;2024-02-26T03:02:29;94491.50;;;-16.29
69420;BMP280;71621;52.030;113.516;2024-02-26T03:05:32;94492.25;;;-16.28
69420;BMP280;71621;52.030;113.516;2024-02-26T03:08:36;94487.41;;;-16.26
69420;BMP280;71621;52.030;113.516;2024-02-26T03:11:41;94478.84;;;-16.23
69420;BMP280;71621;52.030;113.516;2024-02-26T03:14:44;94491.94;;;-16.30
69420;BMP280;71621;52.030;113.516;2024-02-26T03:17:48;94477.03;;;-16.32
69420;BMP280;71621;52.030;113.516;2024-02-26T03:20:52;94474.31;;;-16.19
69420;BMP280;71621;52.030;113.516;2024-02-26T03:23:56;94468.22;;;-16.03
69420;BMP280;71621;52.030;113.516;2024-02-26T03:27:00;94460.97;;;-15.95
69420;BMP280;71621;52.030;113.516;2024-02-26T03:30:04;94469.75;;;-15.87
69420;BMP280;71621;52.030;113.516;2024-02-26T03:33:07;94458.94;;;-15.82
69420;BMP280;71621;52.030;113.516;2024-02-26T03:36:11;94459.78;;;-15.67
69420;BMP280;71621;52.030;113.516;2024-02-26T03:39:15;94450.31;;;-15.42
69420;BMP280;71621;52.030;113.516;2024-02-26T03:42:18;94447.53;;;-15.20
69420;BMP280;71621;52.030;113.516;2024-02-26T03:45:22;94448.31;;;-15.05
69420;BMP280;71621;52.030;113.516;2024-02-26T03:48:26;94443.00;;;-14.92
69420;BMP280;71621;52.030;113.516;2024-02-26T03:51:30;94436.69;;;-14.82
69420;BMP280;71621;52.030;113.516;2024-02-26T03:54:34;94440.88;;;-14.70
69420;BMP280;71621;52.030;113.516;2024-02-26T03:57:38;94435.84;;;-14.64
69420;BMP280;71621;52.030;113.516;2024-02-26T04:00:42;94428.34;;;-14.53
69420;BMP280;71621;52.030;113.516;2024-02-26T04:03:47;94427.50;;;-14.35
69420;BMP280;71621;52.030;113.516;2024-02-26T04:06:50;94426.22;;;-14.16
69420;BMP280;71621;52.030;113.516;2024-02-26T04:09:54;94426.06;;;-13.97
69420;BMP280;71621;52.030;113.516;2024-02-26T04:12:57;94416.94;;;-13.83
69420;BMP280;71621;52.030;113.516;2024-02-26T04:16:01;94418.00;;;-13.75
69420;BMP280;71621;52.030;113.516;2024-02-26T04:19:05;94401.13;;;-13.62
69420;BMP280;71621;52.030;113.516;2024-02-26T04:22:10;94412.88;;;-13.40
69420;BMP280;71621;52.030;113.516;2024-02-26T04:25:14;94398.16;;;-13.25
69420;BMP280;71621;52.030;113.516;2024-02-26T04:28:18;94394.47;;;-13.18
69420;BMP280;71621;52.030;113.516;2024-02-26T04:31:23;94397.94;;;-13.01
69420;BMP280;71621;52.030;113.516;2024-02-26T04:34:26;94390.28;;;-12.95
69420;BMP280;71621;52.030;113.516;2024-02-26T04:37:30;94395.13;;;-12.82
69420;BMP280;71621;52.030;113.516;2024-02-26T04:40:34;94386.22;;;-12.61
69420;BMP280;71621;52.030;113.516;2024-02-26T04:43:38;94379.19;;;-12.40
69420;BMP280;71621;52.030;113.516;2024-02-26T04:46:47;94375.59;;;-12.22
69420;BMP280;71621;52.030;113.516;2024-02-26T04:49:51;94368.84;;;-12.14
69420;BMP280;71621;52.030;113.516;2024-02-26T04:52:55;94364.75;;;-12.00
69420;BMP280;71621;52.030;113.516;2024-02-26T04:55:58;94358.53;;;-11.82
69420;BMP280;71621;52.030;113.516;2024-02-26T04:59:02;94353.50;;;-11.66
69420;BMP280;71621;52.030;113.516;2024-02-26T05:02:05;94355.66;;;-11.53
69420;BMP280;71621;52.030;113.516;2024-02-26T05:05:09;94353.66;;;-11.32
69420;BMP280;71621;52.030;113.516;2024-02-26T05:08:13;94347.63;;;-11.18
69420;BMP280;71621;52.030;113.516;2024-02-26T05:11:16;94345.31;;;-11.04
69420;BMP280;71621;52.030;113.516;2024-02-26T05:14:21;94339.97;;;-10.95
69420;BMP280;71621;52.030;113.516;2024-02-26T05:17:25;94335.06;;;-10.82
69420;BMP280;71621;52.030;113.516;2024-02-26T05:20:28;94335.56;;;-10.67
69420;BMP280;71621;52.030;113.516;2024-02-26T05:23:32;94326.22;;;-10.53
69420;BMP280;71621;52.030;113.516;2024-02-26T05:26:36;94322.69;;;-10.39
69420;BMP280;71621;52.030;113.516;2024-02-26T05:29:39;94316.59;;;-10.30
69420;BMP280;71621;52.030;113.516;2024-02-26T05:32:43;94313.06;;;-10.21
69420;BMP280;71621;52.030;113.516;2024-02-26T05:35:47;94313.97;;;-10.07
69420;BMP280;71621;52.030;113.516;2024-02-26T05:38:51;94316.53;;;-10.02
69420;BMP280;71621;52.030;113.516;2024-02-26T05:41:54;94304.78;;;-9.97
69420;BMP280;71621;52.030;113.516;2024-02-26T05:44:58;94305.72;;;-9.78
69420;BMP280;71621;52.030;113.516;2024-02-26T05:48:01;94295.81;;;-9.68
69420;BMP280;71621;52.030;113.516;2024-02-26T05:51:06;94294.84;;;-9.65
69420;BMP280;71621;52.030;113.516;2024-02-26T05:54:10;94290.81;;;-9.55
69420;BMP280;71621;52.030;113.516;2024-02-26T05:57:13;94290.56;;;-9.51
69420;BMP280;71621;52.030;113.516;2024-02-26T06:00:17;94282.34;;;-9.61
69420;BMP280;71621;52.030;113.516;2024-02-26T06:03:20;94275.34;;;-9.66
69420;BMP280;71621;52.030;113.516;2024-02-26T06:06:24;94281.16;;;-9.49
69420;BMP280;71621;52.030;113.516;2024-02-26T06:09:28;94277.09;;;-9.33
69420;BMP280;71621;52.030;113.516;2024-02-26T06:12:34;94274.19;;;-9.24
69420;BMP280;71621;52.030;113.516;2024-02-26T06:15:38;94273.06;;;-9.34
69420;BMP280;71621;52.030;113.516;2024-02-26T06:18:41;94271.00;;;-9.41
69420;BMP280;71621;52.030;113.516;2024-02-26T06:21:45;94280.09;;;-9.29
69420;BMP280;71621;52.030;113.516;2024-02-26T06:24:49;94260.56;;;-9.24
69420;BMP280;71621;52.030;113.516;2024-02-26T06:27:52;94266.81;;;-9.09
69420;BMP280;71621;52.030;113.516;2024-02-26T06:30:56;94258.47;;;-8.90
69420;BMP280;71621;52.030;113.516;2024-02-26T06:33:59;94253.50;;;-8.88
69420;BMP280;71621;52.030;113.516;2024-02-26T06:37:03;94250.50;;;-8.92
69420;BMP280;71621;52.030;113.516;2024-02-26T06:40:07;94253.59;;;-8.99
69420;BMP280;71621;52.030;113.516;2024-02-26T06:43:11;94240.16;;;-8.98
69420;BMP280;71621;52.030;113.516;2024-02-26T06:46:15;94257.75;;;-8.85
69420;BMP280;71621;52.030;113.516;2024-02-26T06:49:19;94242.22;;;-8.91
69420;BMP280;71621;52.030;113.516;2024-02-26T06:52:23;94238.84;;;-8.80
69420;BMP280;71621;52.030;113.516;2024-02-26T06:55:28;94244.72;;;-8.74
69420;BMP280;71621;52.030;113.516;2024-02-26T06:58:32;94245.50;;;-8.85
69420;BMP280;71621;52.030;113.516;2024-02-26T07:01:36;94247.41;;;-8.85
69420;BMP280;71621;52.030;113.516;2024-02-26T07:04:39;94230.38;;;-8.81
69420;BMP280;71621;52.030;113.516;2024-02-26T07:07:43;94238.84;;;-8.74
69420;BMP280;71621;52.030;113.516;2024-02-26T07:10:47;94248.41;;;-8.64
69420;BMP280;71621;52.030;113.516;2024-02-26T07:13:51;94238.97;;;-8.67
69420;BMP280;71621;52.030;113.516;2024-02-26T07:16:54;94242.75;;;-8.68
69420;BMP280;71621;52.030;113.516;2024-02-26T07:19:57;94236.38;;;-8.67
69420;BMP280;71621;52.030;113.516;2024-02-26T07:23:01;94240.13;;;-8.62
69420;BMP280;71621;52.030;113.516;2024-02-26T07:26:05;94250.81;;;-8.71
69420;BMP280;71621;52.030;113.516;2024-02-26T07:29:11;94246.31;;;-8.71
69420;BMP280;71621;52.030;113.516;2024-02-26T07:32:15;94252.88;;;-8.64
69420;BMP280;71621;52.030;113.516;2024-02-26T07:35:19;94247.63;;;-8.59
69420;BMP280;71621;52.030;113.516;2024-02-26T07:38:25;94256.28;;;-8.50
69420;BMP280;71621;52.030;113.516;2024-02-26T07:41:43;94248.72;;;-8.48
69420;BMP280;71621;52.030;113.516;2024-02-26T07:44:51;94250.13;;;-8.47
69420;BMP280;71621;52.030;113.516;2024-02-26T07:47:55;94245.94;;;-8.50
69420;BMP280;71621;52.030;113.516;2024-02-26T07:50:59;94241.41;;;-8.44
69420;BMP280;71621;52.030;113.516;2024-02-26T07:54:03;94244.31;;;-8.54
69420;BMP280;71621;52.030;113.516;2024-02-26T07:57:06;94242.34;;;-8.47
69420;BMP280;71621;52.030;113.516;2024-02-26T08:00:10;94247.81;;;-8.51
69420;BMP280;71621;52.030;113.516;2024-02-26T08:03:14;94240.94;;;-8.43
69420;BMP280;71621;52.030;113.516;2024-02-26T08:06:19;94250.81;;;-8.41
69420;BMP280;71621;52.030;113.516;2024-02-26T08:09:22;94249.03;;;-8.58
69420;BMP280;71621;52.030;113.516;2024-02-26T08:12:26;94232.59;;;-8.66
69420;BMP280;71621;52.030;113.516;2024-02-26T08:15:29;94252.09;;;-8.54
69420;BMP280;71621;52.030;113.516;2024-02-26T08:18:33;94251.06;;;-8.45
69420;BMP280;71621;52.030;113.516;2024-02-26T08:21:36;94253.03;;;-8.57
69420;BMP280;71621;52.030;113.516;2024-02-26T08:24:40;94260.47;;;-8.72
69420;BMP280;71621;52.030;113.516;2024-02-26T08:27:43;94246.31;;;-8.71
69420;BMP280;71621;52.030;113.516;2024-02-26T08:30:47;94240.63;;;-8.64
69420;BMP280;71621;52.030;113.516;2024-02-26T08:33:50;94233.00;;;-8.56
69420;BMP280;71621;52.030;113.516;2024-02-26T08:36:54;94248.13;;;-8.60
69420;BMP280;71621;52.030;113.516;2024-02-26T08:39:57;94250.75;;;-8.66
69420;BMP280;71621;52.030;113.516;2024-02-26T08:43:07;94256.41;;;-8.67
69420;BMP280;71621;52.030;113.516;2024-02-26T08:46:12;94249.69;;;-8.82
69420;BMP280;71621;52.030;113.516;2024-02-26T08:49:16;94242.44;;;-8.83
69420;BMP280;71621;52.030;113.516;2024-02-26T08:52:19;94234.66;;;-8.83
69420;BMP280;71621;52.030;113.516;2024-02-26T08:55:24;94237.94;;;-8.83
69420;BMP280;71621;52.030;113.516;2024-02-26T08:58:28;94251.28;;;-8.73
69420;BMP280;71621;52.030;113.516;2024-02-26T09:01:31;94245.22;;;-8.81
69420;BMP280;71621;52.030;113.516;2024-02-26T09:04:36;94245.31;;;-8.92
69420;BMP280;71621;52.030;113.516;2024-02-26T09:07:39;94243.50;;;-9.09
69420;BMP280;71621;52.030;113.516;2024-02-26T09:10:43;94247.56;;;-9.13
69420;BMP280;71621;52.030;113.516;2024-02-26T09:13:46;94248.28;;;-9.13
69420;BMP280;71621;52.030;113.516;2024-02-26T09:16:50;94249.47;;;-9.19
69420;BMP280;71621;52.030;113.516;2024-02-26T09:19:55;94241.97;;;-9.28
69420;BMP280;71621;52.030;113.516;2024-02-26T09:22:58;94250.94;;;-9.29
69420;BMP280;71621;52.030;113.516;2024-02-26T09:26:02;94238.69;;;-9.29
69420;BMP280;71621;52.030;113.516;2024-02-26T09:29:05;94244.59;;;-9.34
69420;BMP280;71621;52.030;113.516;2024-02-26T09:32:09;94249.09;;;-9.35
69420;BMP280;71621;52.030;113.516;2024-02-26T09:35:12;94242.47;;;-9.30
69420;BMP280;71621;52.030;113.516;2024-02-26T09:38:16;94251.88;;;-9.27
69420;BMP280;71621;52.030;113.516;2024-02-26T09:41:19;94250.47;;;-9.28
69420;BMP280;71621;52.030;113.516;2024-02-26T09:44:24;94257.81;;;-9.38
69420;BMP280;71621;52.030;113.516;2024-02-26T09:47:31;94246.81;;;-9.49
69420;BMP280;71621;52.030;113.516;2024-02-26T09:50:35;94245.84;;;-9.52
69420;BMP280;71621;52.030;113.516;2024-02-26T09:53:43;94246.63;;;-9.57
69420;BMP280;71621;52.030;113.516;2024-02-26T09:56:49;94244.72;;;-9.62
69420;BMP280;71621;52.030;113.516;2024-02-26T10:00:08;94249.72;;;-9.70
69420;BMP280;71621;52.030;113.516;2024-02-26T10:03:13;94252.81;;;-9.83
69420;BMP280;71621;52.030;113.516;2024-02-26T10:06:19;94253.75;;;-9.91
69420;BMP280;71621;52.030;113.516;2024-02-26T10:09:23;94255.91;;;-9.90
69420;BMP280;71621;52.030;113.516;2024-02-26T10:12:28;94257.78;;;-9.90
69420;BMP280;71621;52.030;113.516;2024-02-26T10:15:34;94258.25;;;-9.97
69420;BMP280;71621;52.030;113.516;2024-02-26T10:18:47;94260.84;;;-10.03
69420;BMP280;71621;52.030;113.516;2024-02-26T10:21:57;94261.34;;;-10.10
69420;BMP280;71621;52.030;113.516;2024-02-26T10:25:01;94268.16;;;-10.18
69420;BMP280;71621;52.030;113.516;2024-02-26T10:28:05;94276.63;;;-10.23
69420;BMP280;71621;52.030;113.516;2024-02-26T10:31:10;94270.09;;;-10.30
69420;BMP280;71621;52.030;113.516;2024-02-26T10:34:17;94274.31;;;-10.32
69420;BMP280;71621;52.030;113.516;2024-02-26T10:37:22;94279.72;;;-10.42
69420;BMP280;71621;52.030;113.516;2024-02-26T10:40:28;94283.91;;;-10.44
69420;BMP280;71621;52.030;113.516;2024-02-26T10:43:32;94285.34;;;-10.49
69420;BMP280;71621;52.030;113.516;2024-02-26T10:46:36;94292.38;;;-10.55
69420;BMP280;71621;52.030;113.516;2024-02-26T10:49:45;94300.34;;;-10.58
69420;BMP280;71621;52.030;113.516;2024-02-26T10:52:51;94293.34;;;-10.64
69420;BMP280;71621;52.030;113.516;2024-02-26T10:55:58;94305.75;;;-10.68
69420;BMP280;71621;52.030;113.516;2024-02-26T10:59:03;94304.56;;;-10.83
69420;BMP280;71621;52.030;113.516;2024-02-26T11:02:08;94303.84;;;-10.84
69420;BMP280;71621;52.030;113.516;2024-02-26T11:05:13;94306.66;;;-10.88
69420;BMP280;71621;52.030;113.516;2024-02-26T11:08:19;94303.56;;;-10.97
69420;BMP280;71621;52.030;113.516;2024-02-26T11:11:25;94319.34;;;-10.95
69420;BMP280;71621;52.030;113.516;2024-02-26T11:14:30;94315.59;;;-10.89
69420;BMP280;71621;52.030;113.516;2024-02-26T11:17:36;94319.09;;;-10.92
69420;BMP280;71621;52.030;113.516;2024-02-26T11:20:42;94325.19;;;-10.89
69420;BMP280;71621;52.030;113.516;2024-02-26T11:23:46;94323.06;;;-10.96
69420;BMP280;71621;52.030;113.516;2024-02-26T11:27:04;94318.38;;;-11.03
69420;BMP280;71621;52.030;113.516;2024-02-26T11:30:10;94338.78;;;-11.00
69420;BMP280;71621;52.030;113.516;2024-02-26T11:33:15;94333.84;;;-10.98
69420;BMP280;71621;52.030;113.516;2024-02-26T11:36:19;94331.50;;;-11.01
69420;BMP280;71621;52.030;113.516;2024-02-26T11:39:24;94331.25;;;-11.09
69420;BMP280;71621;52.030;113.516;2024-02-26T11:42:27;94332.84;;;-11.17
69420;BMP280;71621;52.030;113.516;2024-02-26T11:49:00;94335.38;;;-11.28
69420;BMP280;71621;52.030;113.516;2024-02-26T11:52:09;94338.66;;;-11.33
69420;BMP280;71621;52.030;113.516;2024-02-26T11:55:31;94331.84;;;-11.37
69420;BMP280;71621;52.030;113.516;2024-02-26T11:58:35;94333.94;;;-11.41
69420;BMP280;71621;52.030;113.516;2024-02-26T12:01:45;94344.28;;;-11.35
69420;BMP280;71621;52.030;113.516;2024-02-26T12:04:51;94340.72;;;-11.38
69420;BMP280;71621;52.030;113.516;2024-02-26T12:07:59;94342.16;;;-11.37
69420;BMP280;71621;52.030;113.516;2024-02-26T12:11:04;94342.38;;;-11.40
69420;BMP280;71621;52.030;113.516;2024-02-26T12:14:18;94354.34;;;-11.43
69420;BMP280;71621;52.030;113.516;2024-02-26T12:17:23;94347.47;;;-11.51
69420;BMP280;71621;52.030;113.516;2024-02-26T12:20:27;94346.06;;;-11.52
69420;BMP280;71621;52.030;113.516;2024-02-26T12:23:30;94348.81;;;-11.62
69420;BMP280;71621;52.030;113.516;2024-02-26T12:26:34;94346.22;;;-11.67
69420;BMP280;71621;52.030;113.516;2024-02-26T12:29:38;94344.75;;;-11.79
69420;BMP280;71621;52.030;113.516;2024-02-26T12:32:41;94347.53;;;-11.83
69420;BMP280;71621;52.030;113.516;2024-02-26T12:35:45;94344.63;;;-11.96
69420;BMP280;71621;52.030;113.516;2024-02-26T12:38:51;94342.69;;;-12.07
69420;BMP280;71621;52.030;113.516;2024-02-26T12:41:57;94343.06;;;-12.20
69420;BMP280;71621;52.030;113.516;2024-02-26T12:45:03;94341.13;;;-12.30
69420;BMP280;71621;52.030;113.516;2024-02-26T12:48:12;94345.97;;;-12.38
69420;BMP280;71621;52.030;113.516;2024-02-26T12:51:16;94342.75;;;-12.53
69420;BMP280;71621;52.030;113.516;2024-02-26T12:54:20;94345.72;;;-12.66
69420;BMP280;71621;52.030;113.516;2024-02-26T12:57:24;94343.25;;;-12.75
69420;BMP280;71621;52.030;113.516;2024-02-26T13:00:29;94336.34;;;-12.90
69420;BMP280;71621;52.030;113.516;2024-02-26T13:03:34;94346.31;;;-12.97
69420;BMP280;71621;52.030;113.516;2024-02-26T13:06:38;94346.00;;;-13.05
69420;BMP280;71621;52.030;113.516;2024-02-26T13:09:42;94351.09;;;-13.10
69420;BMP280;71621;52.030;113.516;2024-02-26T13:12:47;94347.72;;;-13.17
69420;BMP280;71621;52.030;113.516;2024-02-26T13:16:07;94352.72;;;-13.28
69420;BMP280;71621;52.030;113.516;2024-02-26T13:19:11;94348.00;;;-13.35
69420;BMP280;71621;52.030;113.516;2024-02-26T13:22:15;94348.69;;;-13.34
69420;BMP280;71621;52.030;113.516;2024-02-26T13:25:21;94351.25;;;-13.34
69420;BMP280;71621;52.030;113.516;2024-02-26T13:28:25;94355.53;;;-13.46
69420;BMP280;71621;52.030;113.516;2024-02-26T13:31:31;94355.28;;;-13.48
69420;BMP280;71621;52.030;113.516;2024-02-26T13:34:34;94353.88;;;-13.49
69420;BMP280;71621;52.030;113.516;2024-02-26T13:37:40;94361.06;;;-13.53
69420;BMP280;71621;52.030;113.516;2024-02-26T13:40:44;94359.31;;;-13.62
69420;BMP280;71621;52.030;113.516;2024-02-26T13:43:47;94350.56;;;-13.70
69420;BMP280;71621;52.030;113.516;2024-02-26T13:46:51;94364.81;;;-13.69
69420;BMP280;71621;52.030;113.516;2024-02-26T13:49:55;94365.34;;;-13.80
69420;BMP280;71621;52.030;113.516;2024-02-26T13:52:59;94364.47;;;-13.92
69420;BMP280;71621;52.030;113.516;2024-02-26T13:56:02;94355.28;;;-13.98
69420;BMP280;71621;52.030;113.516;2024-02-26T13:59:08;94361.47;;;-13.90
69420;BMP280;71621;52.030;113.516;2024-02-26T14:02:12;94358.63;;;-13.92
69420;BMP280;71621;52.030;113.516;2024-02-26T14:05:15;94371.75;;;-14.05
69420;BMP280;71621;52.030;113.516;2024-02-26T14:08:19;94359.72;;;-14.28
69420;BMP280;71621;52.030;113.516;2024-02-26T14:11:22;94366.56;;;-14.40
69420;BMP280;71621;52.030;113.516;2024-02-26T14:14:28;94369.44;;;-14.47
69420;BMP280;71621;52.030;113.516;2024-02-26T14:17:31;94366.97;;;-14.56
69420;BMP280;71621;52.030;113.516;2024-02-26T14:20:35;94372.69;;;-14.62
69420;BMP280;71621;52.030;113.516;2024-02-26T14:23:39;94374.19;;;-14.55
69420;BMP280;71621;52.030;113.516;2024-02-26T14:26:43;94373.94;;;-14.57
69420;BMP280;71621;52.030;113.516;2024-02-26T14:29:46;94373.63;;;-14.74
69420;BMP280;71621;52.030;113.516;2024-02-26T14:32:50;94376.09;;;-14.79
69420;BMP280;71621;52.030;113.516;2024-02-26T14:35:53;94368.16;;;-14.81
69420;BMP280;71621;52.030;113.516;2024-02-26T14:38:57;94374.28;;;-14.88
69420;BMP280;71621;52.030;113.516;2024-02-26T14:42:01;94374.09;;;-14.99
69420;BMP280;71621;52.030;113.516;2024-02-26T14:45:05;94368.25;;;-15.00
69420;BMP280;71621;52.030;113.516;2024-02-26T14:48:12;94365.63;;;-14.91
69420;BMP280;71621;52.030;113.516;2024-02-26T14:51:16;94369.56;;;-14.80
69420;BMP280;71621;52.030;113.516;2024-02-26T14:54:20;94369.16;;;-14.88
69420;BMP280;71621;52.030;113.516;2024-02-26T14:57:24;94370.19;;;-14.95
69420;BMP280;71621;52.030;113.516;2024-02-26T15:00:28;94370.25;;;-15.04
69420;BMP280;71621;52.030;113.516;2024-02-26T15:03:31;94367.66;;;-15.19
69420;BMP280;71621;52.030;113.516;2024-02-26T15:06:38;94374.38;;;-15.21
69420;BMP280;71621;52.030;113.516;2024-02-26T15:09:41;94371.41;;;-15.29
69420;BMP280;71621;52.030;113.516;2024-02-26T15:12:45;94364.22;;;-15.40
69420;BMP280;71621;52.030;113.516;2024-02-26T15:15:49;94363.44;;;-15.55
69420;BMP280;71621;52.030;113.516;2024-02-26T15:18:52;94367.53;;;-15.58
69420;BMP280;71621;52.030;113.516;2024-02-26T15:21:56;94364.25;;;-15.58
69420;BMP280;71621;52.030;113.516;2024-02-26T15:25:00;94371.28;;;-15.68
69420;BMP280;71621;52.030;113.516;2024-02-26T15:28:03;94367.88;;;-15.74
69420;BMP280;71621;52.030;113.516;2024-02-26T15:31:09;94371.50;;;-15.90
69420;BMP280;71621;52.030;113.516;2024-02-26T15:34:16;94365.13;;;-15.94
69420;BMP280;71621;52.030;113.516;2024-02-26T15:37:20;94369.66;;;-15.98
69420;BMP280;71621;52.030;113.516;2024-02-26T15:40:24;94368.50;;;-15.97
69420;BMP280;71621;52.030;113.516;2024-02-26T15:43:28;94365.38;;;-16.01
69420;BMP280;71621;52.030;113.516;2024-02-26T15:46:31;94364.72;;;-16.11
69420;BMP280;71621;52.030;113.516;2024-02-26T15:49:35;94364.88;;;-16.15
69420;BMP280;71621;52.030;113.516;2024-02-26T15:52:39;94361.59;;;-16.24
69420;BMP280;71621;52.030;113.516;2024-02-26T15:55:43;94368.69;;;-16.19
69420;BMP280;71621;52.030;113.516;2024-02-26T15:58:46;94367.53;;;-16.18
69420;BMP280;71621;52.030;113.516;2024-02-26T16:01:50;94362.59;;;-16.31
69420;BMP280;71621;52.030;113.516;2024-02-26T16:04:53;94359.22;;;-16.37
69420;BMP280;71621;52.030;113.516;2024-02-26T16:08:01;94361.34;;;-16.45
69420;BMP280;71621;52.030;113.516;2024-02-26T16:11:06;94367.59;;;-16.55
69420;BMP280;71621;52.030;113.516;2024-02-26T16:14:16;94364.03;;;-16.67
69420;BMP280;71621;52.030;113.516;2024-02-26T16:17:29;94367.31;;;-16.66
69420;BMP280;71621;52.030;113.516;2024-02-26T16:20:37;94358.78;;;-16.72
69420;BMP280;71621;52.030;113.516;2024-02-26T16:23:41;94366.31;;;-16.78
69420;BMP280;71621;52.030;113.516;2024-02-26T16:26:44;94365.16;;;-16.95
69420;BMP280;71621;52.030;113.516;2024-02-26T16:29:48;94368.13;;;-17.06
69420;BMP280;71621;52.030;113.516;2024-02-26T16:32:51;94367.25;;;-17.03
69420;BMP280;71621;52.030;113.516;2024-02-26T16:35:55;94367.13;;;-17.09
69420;BMP280;71621;52.030;113.516;2024-02-26T16:38:59;94370.81;;;-17.10
69420;BMP280;71621;52.030;113.516;2024-02-26T16:42:04;94363.16;;;-17.10
69420;BMP280;71621;52.030;113.516;2024-02-26T16:45:08;94366.25;;;-17.15
69420;BMP280;71621;52.030;113.516;2024-02-26T16:48:12;94370.34;;;-17.27
69420;BMP280;71621;52.030;113.516;2024-02-26T16:51:15;94367.47;;;-17.38
69420;BMP280;71621;52.030;113.516;2024-02-26T16:54:19;94369.97;;;-17.56
69420;BMP280;71621;52.030;113.516;2024-02-26T16:57:23;94378.44;;;-17.59
69420;BMP280;71621;52.030;113.516;2024-02-26T17:00:26;94379.34;;;-17.53
69420;BMP280;71621;52.030;113.516;2024-02-26T17:03:30;94378.50;;;-17.50
69420;BMP280;71621;52.030;113.516;2024-02-26T17:06:34;94378.78;;;-17.48